createdAt,value
2019-05-29T00:00:12.928Z,100344.62
2019-05-29T00:02:42.024Z,100343.80
2019-05-29T00:05:12.175Z,100341.48
2019-05-29T00:07:41.316Z,100348.84
2019-05-29T00:10:12.264Z,100359.16
2019-05-29T00:12:41.136Z,100359.45
2019-05-29T00:15:10.835Z,100363.50
2019-05-29T00:17:39.665Z,100361.44
2019-05-29T00:20:10.482Z,100372.84
2019-05-29T00:22:39.363Z,100374.48
2019-05-29T00:25:08.940Z,100372.23
2019-05-29T00:27:37.935Z,100376.77
2019-05-29T00:30:07.366Z,100383.88
2019-05-29T00:32:36.866Z,100382.06
2019-05-29T00:35:06.446Z,100386.18
2019-05-29T00:37:35.197Z,100378.66
2019-05-29T00:40:04.849Z,100391.52
2019-05-29T00:42:33.863Z,100398.38
2019-05-29T00:45:02.929Z,100390.94
2019-05-29T00:47:32.539Z,100394.76
2019-05-29T00:50:01.324Z,100406.42
2019-05-29T00:52:30.225Z,100396.02
2019-05-29T00:54:59.003Z,100403.86
2019-05-29T00:57:28.078Z,100408.52
2019-05-29T00:59:56.996Z,100408.51
2019-05-29T01:02:25.870Z,100410.16
2019-05-29T01:04:54.670Z,100421.83
2019-05-29T01:07:23.493Z,100412.63
2019-05-29T01:09:52.475Z,100418.58
2019-05-29T01:12:21.403Z,100411.97
2019-05-29T01:14:50.816Z,100423.58
2019-05-29T01:17:20.121Z,100424.11
2019-05-29T01:19:49.005Z,100433.69
2019-05-29T01:22:18.705Z,100436.32
2019-05-29T01:24:47.791Z,100436.38
2019-05-29T01:27:16.857Z,100441.05
2019-05-29T01:29:45.663Z,100445.47
2019-05-29T01:32:15.489Z,100445.44
2019-05-29T01:34:44.414Z,100447.55
2019-05-29T01:37:14.007Z,100454.31
2019-05-29T01:39:42.913Z,100446.08
2019-05-29T01:42:11.830Z,100453.34
2019-05-29T01:44:40.647Z,100451.87
2019-05-29T01:47:09.637Z,100453.92
2019-05-29T01:49:38.584Z,100458.65
2019-05-29T01:52:07.395Z,100452.47
2019-05-29T01:54:36.292Z,100463.05
2019-05-29T01:57:05.229Z,100459.17
2019-05-29T01:59:34.238Z,100459.25
2019-05-29T02:02:03.042Z,100463.48
2019-05-29T02:04:31.814Z,100468.59
2019-05-29T02:07:00.698Z,100477.37
2019-05-29T02:09:29.610Z,100477.08
2019-05-29T02:11:58.548Z,100483.36
2019-05-29T02:14:27.332Z,100479.80
2019-05-29T02:16:56.337Z,100490.56
2019-05-29T02:19:25.345Z,100496.72
2019-05-29T02:21:54.256Z,100494.33
2019-05-29T02:24:23.328Z,100501.77
2019-05-29T02:26:52.261Z,100506.98
2019-05-29T02:29:21.269Z,100504.34
2019-05-29T02:31:50.281Z,100510.27
2019-05-29T02:34:20.014Z,100511.02
2019-05-29T02:36:49.233Z,100522.02
2019-05-29T02:39:18.759Z,100520.52
2019-05-29T02:41:48.283Z,100526.94
2019-05-29T02:44:17.171Z,100529.11
2019-05-29T02:46:46.411Z,100530.17
2019-05-29T02:49:16.699Z,100529.31
2019-05-29T02:51:45.668Z,100528.06
2019-05-29T02:54:14.650Z,100528.30
2019-05-29T02:56:43.719Z,100526.86
2019-05-29T02:59:12.654Z,100529.34
2019-05-29T03:01:41.570Z,100531.18
2019-05-29T03:04:10.458Z,100535.60
2019-05-29T03:06:39.469Z,100535.50
2019-05-29T03:09:08.481Z,100536.78
2019-05-29T03:11:37.572Z,100543.17
2019-05-29T03:14:06.543Z,100544.75
2019-05-29T03:16:35.474Z,100551.39
2019-05-29T03:19:04.744Z,100556.88
2019-05-29T03:21:34.764Z,100562.68
2019-05-29T03:24:03.793Z,100570.63
2019-05-29T03:26:34.786Z,100568.48
2019-05-29T03:29:03.327Z,100575.72
2019-05-29T03:31:41.888Z,100575.41
2019-05-29T03:34:02.868Z,100585.66
2019-05-29T03:36:38.435Z,100581.91
2019-05-29T03:39:02.328Z,100581.91
2019-05-29T03:41:32.694Z,100588.26
2019-05-29T03:44:02.218Z,100585.27
2019-05-29T03:46:39.989Z,100593.33
2019-05-29T03:49:01.798Z,100597.67
2019-05-29T03:51:32.483Z,100604.40
2019-05-29T03:54:01.462Z,100599.72
2019-05-29T03:56:30.716Z,100607.58
2019-05-29T03:59:00.389Z,100612.74
2019-05-29T04:01:31.286Z,100606.94
2019-05-29T04:03:59.983Z,100616.47
2019-05-29T04:06:29.183Z,100623.50
2019-05-29T04:08:58.032Z,100625.70
2019-05-29T04:11:27.441Z,100621.86
2019-05-29T04:13:56.580Z,100627.84
2019-05-29T04:16:27.622Z,100638.39
2019-05-29T04:18:57.750Z,100635.43
2019-05-29T04:21:27.921Z,100637.38
2019-05-29T04:24:00.297Z,100639.46
2019-05-29T04:26:32.326Z,100648.27
2019-05-29T04:29:01.695Z,100646.70
2019-05-29T04:31:32.366Z,100649.19
2019-05-29T04:34:01.347Z,100657.56
2019-05-29T04:36:30.704Z,100659.43
2019-05-29T04:39:01.031Z,100656.34
2019-05-29T04:41:30.840Z,100668.02
2019-05-29T04:43:59.812Z,100667.79
2019-05-29T04:46:30.025Z,100677.22
2019-05-29T04:48:59.438Z,100678.47
2019-05-29T04:51:29.120Z,100674.95
2019-05-29T04:53:58.168Z,100676.61
2019-05-29T04:56:26.929Z,100688.50
2019-05-29T04:58:55.948Z,100688.47
2019-05-29T05:01:24.845Z,100694.70
2019-05-29T05:03:53.734Z,100700.89
2019-05-29T05:06:22.597Z,100709.16
2019-05-29T05:08:51.459Z,100705.09
2019-05-29T05:11:20.481Z,100702.36
2019-05-29T05:13:49.469Z,100704.80
2019-05-29T05:16:18.378Z,100704.80
2019-05-29T05:18:47.269Z,100710.11
2019-05-29T05:21:16.160Z,100714.44
2019-05-29T05:23:45.026Z,100716.48
2019-05-29T05:26:13.964Z,100719.12
2019-05-29T05:28:45.665Z,100726.31
2019-05-29T05:31:13.533Z,100729.51
2019-05-29T05:33:42.505Z,100732.34
2019-05-29T05:36:11.556Z,100743.59
2019-05-29T05:38:41.099Z,100739.77
2019-05-29T05:41:10.166Z,100751.19
2019-05-29T05:43:39.086Z,100744.38
2019-05-29T05:46:07.943Z,100754.27
2019-05-29T05:48:37.133Z,100750.30
2019-05-29T05:51:06.266Z,100763.19
2019-05-29T05:53:35.441Z,100764.15
2019-05-29T05:56:04.526Z,100771.63
2019-05-29T05:58:33.772Z,100772.67
2019-05-29T06:01:02.605Z,100773.80
2019-05-29T06:03:31.876Z,100774.47
2019-05-29T06:06:00.849Z,100777.23
2019-05-29T06:08:29.795Z,100783.34
2019-05-29T06:10:58.654Z,100784.73
2019-05-29T06:13:27.484Z,100791.79
2019-05-29T06:15:58.803Z,100781.17
2019-05-29T06:18:28.023Z,100790.36
2019-05-29T06:20:56.954Z,100794.27
2019-05-29T06:23:25.714Z,100798.95
2019-05-29T06:25:54.607Z,100800.13
2019-05-29T06:28:23.894Z,100801.81
2019-05-29T06:30:52.899Z,100803.15
2019-05-29T06:33:21.771Z,100804.64
2019-05-29T06:35:51.385Z,100805.70
2019-05-29T06:38:20.346Z,100802.77
2019-05-29T06:40:49.370Z,100807.29
2019-05-29T06:43:23.655Z,100807.38
2019-05-29T06:45:54.733Z,100811.73
2019-05-29T06:48:41.483Z,100814.95
2019-05-29T06:50:57.447Z,100817.30
2019-05-29T06:53:27.009Z,100818.94
2019-05-29T06:55:57.588Z,100819.39
2019-05-29T06:58:26.760Z,100823.28
2019-05-29T07:00:55.740Z,100830.26
2019-05-29T07:03:24.717Z,100833.79
2019-05-29T07:05:53.704Z,100836.70
2019-05-29T07:08:37.581Z,100835.90
2019-05-29T07:10:53.163Z,100848.41
2019-05-29T07:13:22.158Z,100839.83
2019-05-29T07:15:51.121Z,100845.67
2019-05-29T07:18:20.115Z,100844.15
2019-05-29T07:20:49.100Z,100850.05
2019-05-29T07:23:18.017Z,100852.34
2019-05-29T07:25:47.436Z,100854.30
2019-05-29T07:28:16.456Z,100856.98
2019-05-29T07:30:53.865Z,100854.28
2019-05-29T07:33:16.154Z,100862.97
2019-05-29T07:35:45.682Z,100858.48
2019-05-29T07:38:14.849Z,100844.27
2019-05-29T07:40:47.148Z,100864.05
2019-05-29T07:43:14.189Z,100875.70
2019-05-29T07:45:44.051Z,100872.26
2019-05-29T07:48:13.097Z,100872.77
2019-05-29T07:50:42.246Z,100876.73
2019-05-29T07:53:11.142Z,100880.01
2019-05-29T07:55:40.428Z,100879.88
2019-05-29T07:58:09.264Z,100884.09
2019-05-29T08:01:02.693Z,100883.79
2019-05-29T08:03:09.756Z,100883.80
2019-05-29T08:05:39.232Z,100881.69
2019-05-29T08:08:08.296Z,100892.69
2019-05-29T08:10:37.281Z,100894.39
2019-05-29T08:13:06.286Z,100892.96
2019-05-29T08:15:49.197Z,100893.45
2019-05-29T08:18:06.085Z,100887.25
2019-05-29T08:20:35.110Z,100890.55
2019-05-29T08:23:04.144Z,100891.10
2019-05-29T08:25:33.143Z,100896.05
2019-05-29T08:28:01.943Z,100898.95
2019-05-29T08:30:31.066Z,100901.52
2019-05-29T08:33:00.031Z,100904.30
2019-05-29T08:35:29.081Z,100905.27
2019-05-29T08:37:58.059Z,100906.66
2019-05-29T08:40:27.011Z,100904.68
2019-05-29T08:42:56.002Z,100907.83
2019-05-29T08:45:25.011Z,100913.16
2019-05-29T08:47:54.066Z,100913.01
2019-05-29T08:50:22.996Z,100915.64
2019-05-29T08:52:52.317Z,100915.37
2019-05-29T08:55:21.455Z,100914.82
2019-05-29T08:57:50.505Z,100920.08
2019-05-29T09:00:20.827Z,100920.89
2019-05-29T09:02:51.119Z,100916.20
2019-05-29T09:05:20.214Z,100913.39
2019-05-29T09:07:50.061Z,100913.16
2019-05-29T09:10:19.999Z,100919.00
2019-05-29T09:12:56.778Z,100914.89
2019-05-29T09:15:21.438Z,100912.64
2019-05-29T09:17:50.902Z,100920.67
2019-05-29T09:20:34.102Z,100923.14
2019-05-29T09:22:50.412Z,100919.53
2019-05-29T09:25:21.067Z,100917.15
2019-05-29T09:27:50.085Z,100922.66
2019-05-29T09:30:20.117Z,100925.55
2019-05-29T09:32:52.038Z,100921.79
2019-05-29T09:35:21.619Z,100925.69
2019-05-29T09:37:50.737Z,100931.33
2019-05-29T09:40:21.042Z,100927.55
2019-05-29T09:42:50.191Z,100931.33
2019-05-29T09:45:19.576Z,100932.39
2019-05-29T09:47:49.107Z,100933.98
2019-05-29T09:50:18.800Z,100935.44
2019-05-29T09:52:49.036Z,100939.44
2019-05-29T09:55:19.385Z,100924.72
2019-05-29T09:57:48.363Z,100941.25
2019-05-29T10:00:17.912Z,100938.98
2019-05-29T10:02:46.927Z,100944.65
2019-05-29T10:05:16.065Z,100940.14
2019-05-29T10:07:44.957Z,100943.47
2019-05-29T10:10:14.248Z,100946.78
2019-05-29T10:12:43.294Z,100946.91
2019-05-29T10:15:14.137Z,100947.16
2019-05-29T10:17:43.199Z,100946.28
2019-05-29T10:20:13.713Z,100953.45
2019-05-29T10:22:42.622Z,100948.44
2019-05-29T10:25:12.245Z,100953.25
2019-05-29T10:27:41.085Z,100955.55
2019-05-29T10:30:10.976Z,100951.51
2019-05-29T10:32:39.951Z,100958.97
2019-05-29T10:35:09.669Z,100957.41
2019-05-29T10:37:38.562Z,100966.16
2019-05-29T10:40:08.948Z,100961.81
2019-05-29T10:42:38.215Z,100966.15
2019-05-29T10:45:08.212Z,100958.22
2019-05-29T10:47:37.178Z,100959.82
2019-05-29T10:50:06.778Z,100960.59
2019-05-29T10:52:35.650Z,100955.72
2019-05-29T10:55:05.016Z,100956.70
2019-05-29T10:57:33.979Z,100952.66
2019-05-29T11:00:03.042Z,100950.92
2019-05-29T11:02:31.990Z,100950.22
2019-05-29T11:05:01.104Z,100949.04
2019-05-29T11:07:29.970Z,100949.50
2019-05-29T11:09:58.785Z,100949.37
2019-05-29T11:12:28.006Z,100949.45
2019-05-29T11:14:57.137Z,100943.36
2019-05-29T11:17:26.210Z,100957.39
2019-05-29T11:19:58.282Z,100950.13
2019-05-29T11:22:27.466Z,100951.13
2019-05-29T11:24:56.729Z,100950.12
2019-05-29T11:27:26.368Z,100949.58
2019-05-29T11:29:56.940Z,100955.78
2019-05-29T11:32:26.036Z,100943.08
2019-05-29T11:34:55.556Z,100942.13
2019-05-29T11:37:24.560Z,100948.48
2019-05-29T11:39:54.882Z,100948.16
2019-05-29T11:42:27.284Z,100950.21
2019-05-29T11:44:55.267Z,100950.78
2019-05-29T11:47:24.259Z,100953.87
2019-05-29T11:49:53.257Z,100958.58
2019-05-29T11:52:25.015Z,100955.09
2019-05-29T11:54:56.542Z,100949.70
2019-05-29T11:57:23.613Z,100949.67
2019-05-29T11:59:53.737Z,100950.95
2019-05-29T12:02:22.991Z,100950.28
2019-05-29T12:04:53.011Z,100943.60
2019-05-29T12:07:21.971Z,100955.26
2019-05-29T12:09:51.418Z,100957.95
2019-05-29T12:12:20.366Z,100948.33
2019-05-29T12:15:00.663Z,100952.80
2019-05-29T12:17:19.966Z,100955.70
2019-05-29T12:19:48.889Z,100943.83
2019-05-29T12:22:17.968Z,100941.10
2019-05-29T12:24:46.850Z,100941.63
2019-05-29T12:27:15.865Z,100939.07
2019-05-29T12:29:44.770Z,100938.44
2019-05-29T12:32:13.808Z,100942.36
2019-05-29T12:34:53.120Z,100942.95
2019-05-29T12:37:15.064Z,100941.44
2019-05-29T12:39:43.893Z,100942.42
2019-05-29T12:42:12.771Z,100952.50
2019-05-29T12:44:41.656Z,100943.66
2019-05-29T12:47:10.602Z,100944.88
2019-05-29T12:49:39.450Z,100944.69
2019-05-29T12:52:09.405Z,100941.27
2019-05-29T12:54:38.916Z,100940.34
2019-05-29T12:57:08.043Z,100937.55
2019-05-29T12:59:39.327Z,100942.23
2019-05-29T13:02:08.408Z,100943.23
2019-05-29T13:05:06.357Z,100953.98
2019-05-29T13:07:08.200Z,100946.89
2019-05-29T13:09:37.225Z,100946.55
2019-05-29T13:12:06.311Z,100941.92
2019-05-29T13:14:35.277Z,100951.77
2019-05-29T13:17:05.175Z,100943.53
2019-05-29T13:19:34.353Z,100949.33
2019-05-29T13:22:03.596Z,100945.73
2019-05-29T13:24:32.735Z,100942.77
2019-05-29T13:27:01.871Z,100939.80
2019-05-29T13:29:30.974Z,100951.38
2019-05-29T13:32:01.994Z,100945.63
2019-05-29T13:34:30.561Z,100946.98
2019-05-29T13:37:03.432Z,100943.17
2019-05-29T13:39:30.128Z,100937.17
2019-05-29T13:42:04.355Z,100939.56
2019-05-29T13:44:29.531Z,100937.31
2019-05-29T13:46:59.892Z,100938.67
2019-05-29T13:49:28.772Z,100933.72
2019-05-29T13:51:59.064Z,100941.78
2019-05-29T13:54:28.099Z,100933.78
2019-05-29T13:56:58.976Z,100931.44
2019-05-29T13:59:27.705Z,100936.49
2019-05-29T14:01:58.277Z,100940.16
2019-05-29T14:04:27.483Z,100945.52
2019-05-29T14:06:56.394Z,100948.20
2019-05-29T14:09:25.374Z,100944.55
2019-05-29T14:11:54.316Z,100945.84
2019-05-29T14:14:23.207Z,100949.63
2019-05-29T14:16:52.111Z,100950.38
2019-05-29T14:19:21.101Z,100948.44
2019-05-29T14:21:50.188Z,100950.94
2019-05-29T14:24:28.365Z,100950.45
2019-05-29T14:26:49.901Z,100941.82
2019-05-29T14:29:18.699Z,100938.31
2019-05-29T14:31:47.652Z,100945.19
2019-05-29T14:34:16.648Z,100937.98
2019-05-29T14:36:45.551Z,100948.05
2019-05-29T14:39:14.507Z,100941.98
2019-05-29T14:41:43.488Z,100938.92
2019-05-29T14:44:12.307Z,100937.57
2019-05-29T14:46:41.168Z,100940.05
2019-05-29T14:49:10.894Z,100941.58
2019-05-29T14:51:40.324Z,100932.06
2019-05-29T14:54:10.878Z,100947.08
2019-05-29T14:56:40.137Z,100941.69
2019-05-29T14:59:09.450Z,100938.84
2019-05-29T15:01:38.346Z,100938.08
2019-05-29T15:04:07.646Z,100935.38
2019-05-29T15:06:36.600Z,100945.61
2019-05-29T15:09:07.684Z,100942.25
2019-05-29T15:11:36.615Z,100941.10
2019-05-29T15:14:06.154Z,100941.95
2019-05-29T15:16:35.009Z,100944.01
2019-05-29T15:19:05.041Z,100944.57
2019-05-29T15:21:34.735Z,100946.19
2019-05-29T15:24:03.742Z,100942.63
2019-05-29T15:26:32.650Z,100952.98
2019-05-29T15:29:01.703Z,100962.47
2019-05-29T15:31:30.520Z,100965.40
2019-05-29T15:33:59.414Z,100961.34
2019-05-29T15:36:28.367Z,100958.38
2019-05-29T15:38:57.288Z,100957.90
2019-05-29T15:41:26.249Z,100960.25
2019-05-29T15:43:55.069Z,100952.67
2019-05-29T15:46:23.957Z,100947.30
2019-05-29T15:48:53.024Z,100957.98
2019-05-29T15:51:22.056Z,100954.71
2019-05-29T15:53:51.072Z,100958.72
2019-05-29T15:56:27.453Z,100963.44
2019-05-29T15:58:50.907Z,100959.84
2019-05-29T16:01:19.821Z,100957.61
2019-05-29T16:03:48.860Z,100958.34
2019-05-29T16:06:18.068Z,100969.59
2019-05-29T16:08:47.028Z,100966.81
2019-05-29T16:11:16.773Z,100964.02
2019-05-29T16:13:45.967Z,100960.06
2019-05-29T16:16:15.347Z,100966.09
2019-05-29T16:18:44.349Z,100966.09
2019-05-29T16:21:14.597Z,100960.17
2019-05-29T16:23:43.684Z,100957.94
2019-05-29T16:26:15.136Z,100956.27
2019-05-29T16:28:44.103Z,100951.00
2019-05-29T16:31:14.748Z,100951.34
2019-05-29T16:33:44.027Z,100956.77
2019-05-29T16:36:14.468Z,100958.13
2019-05-29T16:38:43.335Z,100956.31
2019-05-29T16:41:13.671Z,100958.83
2019-05-29T16:43:42.859Z,100963.99
2019-05-29T16:46:15.505Z,100967.34
2019-05-29T16:48:42.532Z,100967.80
2019-05-29T16:51:12.563Z,100966.05
2019-05-29T16:53:41.564Z,100970.47
2019-05-29T16:56:10.607Z,100969.39
2019-05-29T16:58:41.164Z,100964.40
2019-05-29T17:01:10.193Z,100968.91
2019-05-29T17:03:39.237Z,100968.25
2019-05-29T17:06:08.282Z,100974.58
2019-05-29T17:08:37.265Z,100969.62
2019-05-29T17:11:08.097Z,100975.01
2019-05-29T17:13:37.022Z,100980.30
2019-05-29T17:16:06.027Z,100977.45
2019-05-29T17:18:34.956Z,100984.14
2019-05-29T17:21:04.073Z,100993.34
2019-05-29T17:23:33.116Z,100988.05
2019-05-29T17:26:10.512Z,100981.27
2019-05-29T17:28:32.917Z,100985.85
2019-05-29T17:31:02.607Z,100989.39
2019-05-29T17:33:31.704Z,100982.14
2019-05-29T17:36:00.657Z,100981.02
2019-05-29T17:38:29.740Z,100983.45
2019-05-29T17:40:58.757Z,100991.55
2019-05-29T17:43:28.707Z,100991.14
2019-05-29T17:45:57.932Z,100987.28
2019-05-29T17:48:26.838Z,100994.43
2019-05-29T17:50:56.274Z,100991.07
2019-05-29T17:53:26.215Z,100995.72
2019-05-29T17:55:55.187Z,100990.00
2019-05-29T17:58:25.013Z,100996.39
2019-05-29T18:00:55.031Z,101001.34
2019-05-29T18:03:24.254Z,100994.92
2019-05-29T18:05:53.389Z,100999.28
2019-05-29T18:08:22.908Z,100999.78
2019-05-29T18:10:52.102Z,100998.73
2019-05-29T18:13:21.536Z,101003.87
2019-05-29T18:15:50.603Z,101005.54
2019-05-29T18:18:19.551Z,101001.73
2019-05-29T18:20:48.954Z,101005.23
2019-05-29T18:23:19.820Z,101016.59
2019-05-29T18:25:49.171Z,101009.73
2019-05-29T18:28:18.086Z,101018.03
2019-05-29T18:30:47.118Z,101013.59
2019-05-29T18:33:16.186Z,101016.55
2019-05-29T18:35:45.237Z,101024.66
2019-05-29T18:38:14.420Z,101016.55
2019-05-29T18:40:43.407Z,101018.56
2019-05-29T18:43:13.464Z,101023.52
2019-05-29T18:45:42.472Z,101028.30
2019-05-29T18:48:11.981Z,101030.72
2019-05-29T18:50:44.220Z,101031.65
2019-05-29T18:53:11.953Z,101027.53
2019-05-29T18:55:40.831Z,101037.55
2019-05-29T18:58:09.777Z,101038.66
2019-05-29T19:00:38.745Z,101035.23
2019-05-29T19:03:07.750Z,101049.00
2019-05-29T19:05:36.739Z,101045.27
2019-05-29T19:08:05.904Z,101046.94
2019-05-29T19:10:34.822Z,101054.41
2019-05-29T19:13:03.891Z,101052.62
2019-05-29T19:15:32.904Z,101059.81
2019-05-29T19:18:02.115Z,101065.15
2019-05-29T19:20:32.570Z,101066.47
2019-05-29T19:23:01.671Z,101062.02
2019-05-29T19:25:30.894Z,101070.36
2019-05-29T19:27:59.907Z,101066.19
2019-05-29T19:30:29.415Z,101076.95
2019-05-29T19:32:58.544Z,101079.05
2019-05-29T19:35:27.707Z,101085.89
2019-05-29T19:37:56.640Z,101090.44
2019-05-29T19:40:26.038Z,101099.82
2019-05-29T19:42:56.239Z,101099.82
2019-05-29T19:45:26.466Z,101108.52
2019-05-29T19:47:55.476Z,101106.91
2019-05-29T19:50:24.713Z,101113.55
2019-05-29T19:52:53.624Z,101118.63
2019-05-29T19:55:22.680Z,101118.13
2019-05-29T19:57:56.145Z,101117.54
2019-05-29T20:00:23.319Z,101116.95
2019-05-29T20:02:52.635Z,101113.32
2019-05-29T20:05:21.590Z,101119.88
2019-05-29T20:07:50.667Z,101128.55
2019-05-29T20:10:21.351Z,101128.89
2019-05-29T20:12:52.082Z,101130.03
2019-05-29T20:15:21.376Z,101134.92
2019-05-29T20:17:50.482Z,101141.95
2019-05-29T20:20:19.676Z,101138.16
2019-05-29T20:22:48.667Z,101142.69
2019-05-29T20:25:18.137Z,101153.59
2019-05-29T20:27:47.273Z,101148.70
2019-05-29T20:30:27.578Z,101151.41
2019-05-29T20:32:56.876Z,101150.71
2019-05-29T20:35:25.959Z,101149.23
2019-05-29T20:37:55.033Z,101153.95
2019-05-29T20:40:24.183Z,101152.42
2019-05-29T20:42:55.709Z,101160.97
2019-05-29T20:45:25.162Z,101156.14
2019-05-29T20:47:54.243Z,101161.81
2019-05-29T20:50:23.390Z,101164.28
2019-05-29T20:52:52.214Z,101172.30
2019-05-29T20:55:21.188Z,101172.69
2019-05-29T20:57:49.970Z,101176.00
2019-05-29T21:00:19.419Z,101176.33
2019-05-29T21:02:48.274Z,101177.16
2019-05-29T21:05:17.242Z,101180.33
2019-05-29T21:07:46.503Z,101178.48
2019-05-29T21:10:16.758Z,101186.40
2019-05-29T21:12:47.597Z,101188.60
2019-05-29T21:15:16.627Z,101192.90
2019-05-29T21:17:45.990Z,101195.62
2019-05-29T21:20:16.143Z,101188.07
2019-05-29T21:22:45.098Z,101196.91
2019-05-29T21:25:18.993Z,101203.53
2019-05-29T21:27:48.759Z,101210.82
2019-05-29T21:30:18.595Z,101211.46
2019-05-29T21:32:47.775Z,101215.62
2019-05-29T21:35:16.991Z,101219.36
2019-05-29T21:37:46.647Z,101209.48
2019-05-29T21:40:15.928Z,101216.05
2019-05-29T21:42:44.951Z,101220.50
2019-05-29T21:45:13.842Z,101219.36
2019-05-29T21:47:43.546Z,101218.10
2019-05-29T21:50:13.326Z,101231.81
2019-05-29T21:52:43.631Z,101236.50
2019-05-29T21:55:13.147Z,101234.92
2019-05-29T21:57:45.064Z,101234.91
2019-05-29T22:00:15.814Z,101238.62
2019-05-29T22:02:46.426Z,101229.27
2019-05-29T22:05:15.827Z,101195.47
2019-05-29T22:07:45.085Z,101233.21
2019-05-29T22:10:14.696Z,101237.95
2019-05-29T22:12:43.587Z,101237.34
2019-05-29T22:15:12.937Z,101228.80
2019-05-29T22:17:41.872Z,101227.16
2019-05-29T22:20:11.221Z,101231.91
2019-05-29T22:22:40.349Z,101237.75
2019-05-29T22:25:10.123Z,101236.30
2019-05-29T22:27:38.972Z,101236.87
2019-05-29T22:30:09.726Z,101235.12
2019-05-29T22:32:38.596Z,101237.81
2019-05-29T22:35:07.993Z,101239.66
2019-05-29T22:37:37.255Z,101240.10
2019-05-29T22:40:06.531Z,101242.45
2019-05-29T22:42:35.774Z,101238.13
2019-05-29T22:45:05.088Z,101235.72
2019-05-29T22:47:34.051Z,101238.64
2019-05-29T22:50:03.238Z,101241.67
2019-05-29T22:52:32.239Z,101244.42
2019-05-29T22:55:02.355Z,101242.87
2019-05-29T22:57:31.364Z,101240.48
2019-05-29T23:00:00.264Z,101242.81
2019-05-29T23:02:29.288Z,101245.31
2019-05-29T23:04:58.603Z,101248.36
2019-05-29T23:07:27.688Z,101248.69
2019-05-29T23:09:56.689Z,101248.98
2019-05-29T23:12:25.591Z,101248.69
2019-05-29T23:14:54.615Z,101246.39
2019-05-29T23:17:23.615Z,101253.45
2019-05-29T23:19:52.531Z,101242.54
2019-05-29T23:22:24.491Z,101250.05
2019-05-29T23:24:52.619Z,101246.31
2019-05-29T23:27:21.806Z,101240.61
2019-05-29T23:29:50.696Z,101250.36
2019-05-29T23:32:19.722Z,101245.69
2019-05-29T23:34:48.730Z,101247.42
2019-05-29T23:37:17.780Z,101244.54
2019-05-29T23:39:50.655Z,101237.59
2019-05-29T23:42:19.602Z,101244.00
2019-05-29T23:44:51.712Z,101240.88
2019-05-29T23:47:19.202Z,101237.11
2019-05-29T23:49:48.063Z,101239.31
2019-05-29T23:52:16.949Z,101244.81
2019-05-29T23:54:45.899Z,101241.47
2019-05-29T23:57:15.042Z,101241.27
2019-05-29T23:59:44.027Z,101243.13
